Time;durP1;ratioP1;P1;durP2;ratioP2;P2;SDS_P1;SDS_P2;PMS_P1;PMS_P2;Temp;Humidity;BMP_temperature;BMP_pressure;BME280_temperature;BME280_humidity;BME280_pressure;Samples;Min_cycle;Max_cycle;Signal;HPM_P1;HPM_P2
2023/01/18 00:02:09;;;;;;;1999.90;999.90;;;1.70;99.90;;;;;;5010274;28;20454;-66
2023/01/18 00:04:35;;;;;;;1999.90;999.90;;;1.60;99.90;;;;;;5010098;28;20473;-67
2023/01/18 00:07:02;;;;;;;1999.90;999.90;;;1.60;99.90;;;;;;5010262;28;20914;-67
2023/01/18 00:09:29;;;;;;;1999.90;999.90;;;1.60;99.90;;;;;;5010496;28;20446;-66
2023/01/18 00:11:57;;;;;;;1999.90;999.90;;;1.60;99.90;;;;;;5009840;28;20484;-67
2023/01/18 00:14:23;;;;;;;1999.90;999.90;;;1.60;99.90;;;;;;5010048;28;20477;-66
2023/01/18 00:16:50;;;;;;;1999.90;999.90;;;1.60;99.90;;;;;;5009454;28;20454;-66
2023/01/18 00:19:17;;;;;;;1999.90;999.90;;;1.60;99.90;;;;;;5010144;28;20449;-66
2023/01/18 00:21:44;;;;;;;1999.90;999.90;;;1.60;99.90;;;;;;5010039;28;20453;-66
2023/01/18 00:24:13;;;;;;;1999.90;999.90;;;1.50;99.90;;;;;;5009593;28;20475;-66
2023/01/18 00:26:42;;;;;;;1999.90;999.90;;;1.50;99.90;;;;;;5009985;28;20458;-66
2023/01/18 00:29:10;;;;;;;1999.90;999.90;;;1.50;99.90;;;;;;5009939;28;20450;-67
2023/01/18 00:31:37;;;;;;;1999.90;999.90;;;1.50;99.90;;;;;;5009608;28;20473;-66
2023/01/18 00:34:05;;;;;;;1999.90;999.90;;;1.50;99.90;;;;;;5009669;28;20547;-66
2023/01/18 00:36:32;;;;;;;1999.90;999.90;;;1.50;99.90;;;;;;5009521;28;20490;-67
2023/01/18 00:38:58;;;;;;;1999.90;999.90;;;1.50;99.90;;;;;;5009979;28;20454;-67
2023/01/18 00:41:25;;;;;;;1999.90;999.90;;;1.60;99.90;;;;;;5009755;28;20811;-64
2023/01/18 00:43:52;;;;;;;1999.90;999.90;;;1.50;99.90;;;;;;5009664;28;21305;-66
2023/01/18 00:46:21;;;;;;;1999.90;999.90;;;1.60;99.90;;;;;;5009563;28;21088;-67
2023/01/18 00:48:48;;;;;;;1999.90;999.90;;;1.60;99.90;;;;;;5009705;28;20450;-67
2023/01/18 00:51:17;;;;;;;1999.90;999.90;;;1.50;99.90;;;;;;5009923;28;20489;-67
2023/01/18 00:53:44;;;;;;;1999.90;999.90;;;1.50;99.90;;;;;;5008961;28;20477;-67
2023/01/18 00:56:13;;;;;;;1999.90;999.90;;;1.60;99.90;;;;;;5009825;28;20449;-66
2023/01/18 00:58:41;;;;;;;1999.90;999.90;;;1.60;99.90;;;;;;5009118;28;20472;-66
2023/01/18 01:01:09;;;;;;;1999.90;999.90;;;1.60;99.90;;;;;;5009702;28;20913;-66
2023/01/18 01:06:46;;;;;;;1999.90;999.90;;;1.60;99.90;;;;;;5000796;28;20480;-65
2023/01/18 01:09:15;;;;;;;1999.90;999.90;;;1.70;99.90;;;;;;4988120;28;20466;-66
2023/01/18 01:12:31;;;;;;;1999.90;999.90;;;1.80;99.90;;;;;;4988427;28;20528;-67
2023/01/18 01:28:14;;;;;;;1999.90;999.90;;;1.80;99.90;;;;;;5008774;28;20435;-66
2023/01/18 01:30:40;;;;;;;1999.90;999.90;;;1.80;99.90;;;;;;5009334;28;20682;-67
2023/01/18 01:33:07;;;;;;;1999.90;999.90;;;1.80;99.90;;;;;;5008624;28;20466;-67
2023/01/18 01:35:35;;;;;;;1999.90;999.90;;;1.90;99.90;;;;;;5009336;28;20452;-66
2023/01/18 01:38:02;;;;;;;1999.90;999.90;;;1.80;99.90;;;;;;5008968;28;20450;-66
2023/01/18 01:40:29;;;;;;;1999.90;999.90;;;1.80;99.90;;;;;;5009112;28;20457;-65
2023/01/18 01:42:56;;;;;;;1999.90;999.90;;;1.80;99.90;;;;;;5008814;28;20493;-67
2023/01/18 01:45:26;;;;;;;1999.90;999.90;;;1.80;99.90;;;;;;5008558;28;20943;-66
2023/01/18 01:47:54;;;;;;;1999.90;999.90;;;1.80;99.90;;;;;;5008978;28;20454;-67
2023/01/18 01:50:26;;;;;;;1999.90;999.90;;;1.70;99.90;;;;;;5008813;28;20515;-67
2023/01/18 01:52:55;;;;;;;1999.90;999.90;;;1.70;99.90;;;;;;5008676;28;20477;-66
2023/01/18 01:55:24;;;;;;;1999.90;999.90;;;1.70;99.90;;;;;;5008953;28;20450;-66
2023/01/18 01:57:55;;;;;;;1999.90;999.90;;;1.70;99.90;;;;;;5008410;28;21099;-66
2023/01/18 02:00:24;;;;;;;1999.90;999.90;;;1.90;99.90;;;;;;5008835;28;20827;-66
2023/01/18 02:02:54;;;;;;;1999.90;999.90;;;1.90;99.90;;;;;;5008049;28;20571;-66
2023/01/18 02:05:21;;;;;;;1999.90;999.90;;;1.90;99.90;;;;;;5008766;28;20449;-66
2023/01/18 02:07:48;;;;;;;1999.90;999.90;;;1.90;99.90;;;;;;5008715;28;20446;-65
2023/01/18 02:10:17;;;;;;;1999.90;999.90;;;1.90;99.90;;;;;;5008704;28;20454;-66
2023/01/18 02:12:48;;;;;;;1999.90;999.90;;;1.90;99.90;;;;;;5008790;28;20486;-66
2023/01/18 02:15:15;;;;;;;1999.90;999.90;;;1.90;99.90;;;;;;5008602;28;20445;-66
2023/01/18 02:17:54;;;;;;;1999.90;999.90;;;1.80;99.90;;;;;;5008595;28;20461;-66
2023/01/18 02:20:48;;;;;;;1999.90;999.90;;;1.70;99.90;;;;;;5009888;28;20810;-66
2023/01/18 02:23:33;;;;;;;1999.90;999.90;;;1.70;99.90;;;;;;5012132;28;20493;-65
2023/01/18 02:26:33;;;;;;;1999.90;999.90;;;1.60;99.90;;;;;;5012100;28;20457;-66
2023/01/18 02:29:10;;;;;;;1999.90;999.90;;;1.50;99.90;;;;;;5012690;28;20465;-66
2023/01/18 02:31:45;;;;;;;1999.90;999.90;;;1.50;99.90;;;;;;5011705;28;20445;-66
2023/01/18 02:34:17;;;;;;;1999.90;999.90;;;1.50;99.90;;;;;;5011993;28;20840;-65
2023/01/18 02:36:53;;;;;;;1999.90;999.90;;;1.50;99.90;;;;;;5012423;28;20441;-66
2023/01/18 02:39:31;;;;;;;1999.90;999.90;;;1.50;99.90;;;;;;5011963;28;20454;-66
2023/01/18 02:47:37;;;;;;;1999.90;999.90;;;1.60;99.90;;;;;;5012273;28;20429;-65
2023/01/18 02:50:04;;;;;;;1999.90;999.90;;;1.50;99.90;;;;;;5011770;28;20446;-66
2023/01/18 02:52:40;;;;;;;1999.90;999.90;;;1.50;99.90;;;;;;5011418;28;20453;-65
2023/01/18 02:55:13;;;;;;;1999.90;999.90;;;1.50;99.90;;;;;;5011194;28;20461;-66
2023/01/18 02:57:40;;;;;;;1999.90;999.90;;;1.40;99.90;;;;;;5011991;28;20798;-65
2023/01/18 03:00:13;;;;;;;1999.90;999.90;;;1.40;99.90;;;;;;5011430;28;20446;-66
2023/01/18 03:02:41;;;;;;;1999.90;999.90;;;1.50;99.90;;;;;;5011160;28;20494;-66
2023/01/18 03:05:11;;;;;;;1999.90;999.90;;;1.40;99.90;;;;;;5011961;28;20465;-65
2023/01/18 03:07:45;;;;;;;1999.90;999.90;;;1.40;99.90;;;;;;5011291;28;20457;-66
2023/01/18 03:10:14;;;;;;;1999.90;999.90;;;1.50;99.90;;;;;;5010550;28;20446;-65
2023/01/18 03:12:49;;;;;;;1999.90;999.90;;;1.40;99.90;;;;;;5010673;28;20442;-66
2023/01/18 03:15:26;;;;;;;1999.90;999.90;;;1.50;99.90;;;;;;5011637;28;20453;-66
2023/01/18 03:17:57;;;;;;;1999.90;999.90;;;1.60;99.90;;;;;;5011193;28;20480;-66
2023/01/18 03:20:26;;;;;;;1999.90;999.90;;;1.70;99.90;;;;;;5010941;28;20445;-66
2023/01/18 03:25:44;;;;;;;1999.90;999.90;;;1.80;99.90;;;;;;5011156;28;20433;-66
2023/01/18 03:33:54;;;;;;;1999.90;999.90;;;1.70;99.90;;;;;;5010938;28;20453;-66
2023/01/18 03:36:25;;;;;;;1999.90;999.90;;;1.60;99.90;;;;;;5010929;28;20450;-65
2023/01/18 03:38:55;;;;;;;1999.90;999.90;;;1.60;99.90;;;;;;5011001;28;20947;-66
2023/01/18 03:41:26;;;;;;;1999.90;999.90;;;1.50;99.90;;;;;;5010849;28;20447;-65
2023/01/18 03:43:56;;;;;;;1999.90;999.90;;;1.50;99.90;;;;;;5010481;28;20867;-66
2023/01/18 03:46:29;;;;;;;1999.90;999.90;;;1.50;99.90;;;;;;5010886;28;20520;-67
2023/01/18 03:48:56;;;;;;;1999.90;999.90;;;1.50;99.90;;;;;;5010679;28;20450;-67
2023/01/18 03:51:26;;;;;;;1999.90;999.90;;;1.50;99.90;;;;;;5010558;28;20449;-66
2023/01/18 03:54:00;;;;;;;1999.90;999.90;;;1.50;99.90;;;;;;5010062;28;20527;-66
2023/01/18 03:56:32;;;;;;;1999.90;999.90;;;1.50;99.90;;;;;;5010882;28;20923;-67
2023/01/18 03:59:04;;;;;;;1999.90;999.90;;;1.50;99.90;;;;;;5010520;28;20449;-66
2023/01/18 04:01:32;;;;;;;1999.90;999.90;;;1.50;99.90;;;;;;5010471;28;20820;-66
2023/01/18 04:03:59;;;;;;;1999.90;999.90;;;1.50;99.90;;;;;;5009415;28;20494;-66
2023/01/18 04:06:26;;;;;;;1999.90;999.90;;;1.50;99.90;;;;;;5010387;28;20962;-66
2023/01/18 04:08:53;;;;;;;1999.90;999.90;;;1.40;99.90;;;;;;5010794;28;20455;-66
2023/01/18 04:11:20;;;;;;;1999.90;999.90;;;1.40;99.90;;;;;;5010090;28;20458;-66
2023/01/18 04:13:46;;;;;;;1999.90;999.90;;;1.40;99.90;;;;;;5009854;28;20510;-66
2023/01/18 04:16:14;;;;;;;1999.90;999.90;;;1.40;99.90;;;;;;5009993;28;20627;-66
2023/01/18 04:18:43;;;;;;;1999.90;999.90;;;1.30;99.90;;;;;;5010167;28;20494;-66
2023/01/18 04:21:09;;;;;;;1999.90;999.90;;;1.30;99.90;;;;;;5010267;28;20457;-67
2023/01/18 04:23:36;;;;;;;1999.90;999.90;;;1.30;99.90;;;;;;5009644;28;20500;-66
2023/01/18 04:26:03;;;;;;;1999.90;999.90;;;1.20;99.90;;;;;;5010407;28;20445;-67
2023/01/18 04:28:32;;;;;;;1999.90;999.90;;;1.20;99.90;;;;;;5009895;28;20449;-65
2023/01/18 04:30:59;;;;;;;1999.90;999.90;;;1.20;99.90;;;;;;5009820;28;20482;-67
2023/01/18 04:33:26;;;;;;;1999.90;999.90;;;1.20;99.90;;;;;;5009679;28;20489;-65
2023/01/18 04:35:54;;;;;;;1999.90;999.90;;;1.20;99.90;;;;;;5010301;28;20454;-64
2023/01/18 04:38:21;;;;;;;1999.90;999.90;;;1.20;99.90;;;;;;5010449;28;20453;-66
2023/01/18 04:40:48;;;;;;;1999.90;999.90;;;1.10;99.90;;;;;;5009747;28;20568;-67
2023/01/18 04:43:15;;;;;;;1999.90;999.90;;;1.10;99.90;;;;;;5009451;28;20571;-67
2023/01/18 04:45:45;;;;;;;1999.90;999.90;;;1.10;99.90;;;;;;5009796;28;20454;-66
2023/01/18 04:48:11;;;;;;;1999.90;999.90;;;1.20;99.90;;;;;;5009926;28;21297;-66
2023/01/18 04:50:38;;;;;;;1999.90;999.90;;;1.20;99.90;;;;;;5009518;28;20481;-66
2023/01/18 04:53:06;;;;;;;1999.90;999.90;;;1.20;99.90;;;;;;5009996;28;20882;-66
2023/01/18 04:55:33;;;;;;;1999.90;999.90;;;1.20;99.90;;;;;;5010098;28;20852;-61
2023/01/18 04:58:00;;;;;;;1999.90;999.90;;;1.20;99.90;;;;;;5009378;28;20456;-67
2023/01/18 05:00:27;;;;;;;1999.90;999.90;;;1.10;99.90;;;;;;5009187;28;20452;-66
2023/01/18 05:02:53;;;;;;;1999.90;999.90;;;1.20;99.90;;;;;;5008974;28;21053;-65
2023/01/18 05:05:21;;;;;;;1999.90;999.90;;;1.20;99.90;;;;;;5009535;28;20458;-67
2023/01/18 05:07:47;;;;;;;1999.90;999.90;;;1.20;99.90;;;;;;5009810;28;20496;-66
2023/01/18 05:10:16;;;;;;;1999.90;999.90;;;1.20;99.90;;;;;;5008945;28;20445;-66
2023/01/18 05:12:43;;;;;;;1999.90;999.90;;;1.20;99.90;;;;;;4989666;28;20474;-66
2023/01/18 05:15:10;;;;;;;1999.90;999.90;;;1.10;99.90;;;;;;4989710;28;20458;-66
2023/01/18 05:17:37;;;;;;;1999.90;999.90;;;1.20;99.90;;;;;;5006300;28;20449;-66
2023/01/18 05:20:06;;;;;;;1999.90;999.90;;;1.20;99.90;;;;;;5008048;28;20486;-66
2023/01/18 05:22:35;;;;;;;1999.90;999.90;;;1.20;99.90;;;;;;5007435;28;21026;-67
2023/01/18 05:25:02;;;;;;;1999.90;999.90;;;1.20;99.90;;;;;;5008993;28;20556;-65
2023/01/18 05:27:30;;;;;;;1999.90;999.90;;;1.10;99.90;;;;;;5009018;28;20450;-66
2023/01/18 05:29:58;;;;;;;1999.90;999.90;;;1.10;99.90;;;;;;5009502;28;20448;-66
2023/01/18 05:32:25;;;;;;;1999.90;999.90;;;1.10;99.90;;;;;;5008954;28;20461;-67
2023/01/18 05:34:52;;;;;;;1999.90;999.90;;;1.10;99.90;;;;;;5009703;28;20986;-66
2023/01/18 05:37:19;;;;;;;1999.90;999.90;;;1.10;99.90;;;;;;5009119;28;20446;-66
2023/01/18 05:39:46;;;;;;;1999.90;999.90;;;1.10;99.90;;;;;;5008968;28;20450;-67
2023/01/18 05:42:12;;;;;;;1999.90;999.90;;;1.10;99.90;;;;;;5008797;28;20457;-65
2023/01/18 05:44:40;;;;;;;1999.90;999.90;;;1.00;99.90;;;;;;5008598;28;20488;-66
2023/01/18 05:47:07;;;;;;;1999.90;999.90;;;1.10;99.90;;;;;;5008787;28;20624;-65
2023/01/18 05:49:34;;;;;;;1999.90;999.90;;;1.10;99.90;;;;;;5008800;28;20818;-66
2023/01/18 05:52:01;;;;;;;1999.90;999.90;;;1.10;99.90;;;;;;5008854;28;20464;-65
2023/01/18 05:54:27;;;;;;;1999.90;999.90;;;1.10;99.90;;;;;;5008592;28;20501;-66
2023/01/18 05:56:55;;;;;;;1999.90;999.90;;;1.10;99.90;;;;;;5013057;28;20450;-65
2023/01/18 05:59:22;;;;;;;1999.90;999.90;;;1.10;99.90;;;;;;5012688;28;20931;-66
2023/01/18 06:01:50;;;;;;;1999.90;999.90;;;1.10;99.90;;;;;;5012139;28;20445;-66
2023/01/18 06:04:17;;;;;;;1999.90;999.90;;;1.10;99.90;;;;;;5011458;28;20494;-65
2023/01/18 06:06:43;;;;;;;1999.90;999.90;;;1.10;99.90;;;;;;5008398;28;20450;-65
2023/01/18 06:09:10;;;;;;;1999.90;999.90;;;1.10;99.90;;;;;;5012345;28;20476;-66
2023/01/18 06:11:37;;;;;;;1999.90;999.90;;;1.10;99.90;;;;;;5011816;28;20457;-66
2023/01/18 06:14:04;;;;;;;1999.90;999.90;;;1.10;99.90;;;;;;5011058;28;20472;-67
2023/01/18 06:16:30;;;;;;;1999.90;999.90;;;1.10;99.90;;;;;;5009154;28;20445;-66
2023/01/18 06:18:58;;;;;;;1999.90;999.90;;;1.20;99.90;;;;;;5012050;28;20449;-67
2023/01/18 06:21:25;;;;;;;1999.90;999.90;;;1.20;99.90;;;;;;5008064;28;21081;-66
2023/01/18 06:23:52;;;;;;;1999.90;999.90;;;1.30;99.90;;;;;;5010920;28;20481;-67
2023/01/18 06:26:19;;;;;;;1999.90;999.90;;;1.30;99.90;;;;;;5012147;28;20452;-67
2023/01/18 06:28:45;;;;;;;1999.90;999.90;;;1.30;99.90;;;;;;5012096;28;20454;-66
2023/01/18 06:31:12;;;;;;;1999.90;999.90;;;1.40;99.90;;;;;;5010392;28;20472;-69
2023/01/18 06:33:39;;;;;;;1999.90;999.90;;;1.30;99.90;;;;;;5011614;28;20825;-66
2023/01/18 06:36:08;;;;;;;1999.90;999.90;;;1.30;99.90;;;;;;5011595;28;20821;-67
2023/01/18 06:38:34;;;;;;;1999.90;999.90;;;1.30;99.90;;;;;;5012297;28;20446;-68
2023/01/18 06:41:01;;;;;;;1999.90;999.90;;;1.40;99.90;;;;;;5012273;28;20816;-67
2023/01/18 06:43:28;;;;;;;1999.90;999.90;;;1.40;99.90;;;;;;5012119;28;20859;-67
2023/01/18 06:45:55;;;;;;;1999.90;999.90;;;1.30;99.90;;;;;;5011911;28;20449;-68
2023/01/18 06:48:22;;;;;;;1999.90;999.90;;;1.30;99.90;;;;;;5011910;28;20450;-67
2023/01/18 06:50:51;;;;;;;1999.90;999.90;;;1.20;99.90;;;;;;5011752;28;20464;-67
2023/01/18 06:53:20;;;;;;;1999.90;999.90;;;1.30;99.90;;;;;;5011466;28;20501;-67
2023/01/18 06:55:53;;;;;;;1999.90;999.90;;;1.30;99.90;;;;;;5011697;28;20474;-66
2023/01/18 06:58:20;;;;;;;1999.90;999.90;;;1.40;99.90;;;;;;5011769;28;20457;-67
2023/01/18 07:00:46;;;;;;;1999.90;999.90;;;1.40;99.90;;;;;;5011759;28;20450;-66
2023/01/18 07:03:13;;;;;;;1999.90;999.90;;;1.40;99.90;;;;;;5011130;28;21010;-67
2023/01/18 07:05:40;;;;;;;1999.90;999.90;;;1.40;99.90;;;;;;5011658;28;20873;-67
2023/01/18 07:08:07;;;;;;;1999.90;999.90;;;1.30;99.90;;;;;;5011471;28;20962;-67
2023/01/18 07:10:36;;;;;;;1999.90;999.90;;;1.30;99.90;;;;;;5011787;28;20883;-67
2023/01/18 07:13:02;;;;;;;1999.90;999.90;;;1.20;99.90;;;;;;5011187;28;20470;-66
2023/01/18 07:15:29;;;;;;;1999.90;999.90;;;1.20;99.90;;;;;;5011521;28;20449;-66
2023/01/18 07:17:56;;;;;;;1999.90;999.90;;;1.30;99.90;;;;;;5011449;28;20450;-66
2023/01/18 07:20:23;;;;;;;1999.90;999.90;;;1.30;99.90;;;;;;5011582;28;20516;-66
2023/01/18 07:22:51;;;;;;;1999.90;999.90;;;1.30;99.90;;;;;;5011237;28;20481;-67
2023/01/18 07:25:19;;;;;;;1999.90;999.90;;;1.30;99.90;;;;;;5011323;28;20508;-67
2023/01/18 07:27:48;;;;;;;1999.90;999.90;;;1.40;99.90;;;;;;5011235;28;20811;-67
2023/01/18 07:30:16;;;;;;;1999.90;999.90;;;1.40;99.90;;;;;;5011214;28;20450;-68
2023/01/18 07:32:48;;;;;;;1999.90;999.90;;;1.40;99.90;;;;;;5010378;28;20933;-67
2023/01/18 07:35:16;;;;;;;1999.90;999.90;;;1.30;99.90;;;;;;5011179;28;20457;-68
2023/01/18 07:37:42;;;;;;;1999.90;999.90;;;1.30;99.90;;;;;;5011029;28;20446;-68
2023/01/18 07:40:10;;;;;;;1999.90;999.90;;;1.30;99.90;;;;;;5010879;28;20445;-67
2023/01/18 07:42:37;;;;;;;1999.90;999.90;;;1.30;99.90;;;;;;5010497;28;20477;-67
2023/01/18 07:45:08;;;;;;;1999.90;999.90;;;1.20;99.90;;;;;;5010902;28;20477;-67
2023/01/18 07:47:35;;;;;;;1999.90;999.90;;;1.20;99.90;;;;;;5010979;28;20454;-66
2023/01/18 07:50:02;;;;;;;1999.90;999.90;;;1.20;99.90;;;;;;5010988;28;20445;-66
2023/01/18 07:52:30;;;;;;;1999.90;999.90;;;1.20;99.90;;;;;;5009695;28;20465;-65
2023/01/18 07:54:57;;;;;;;1999.90;999.90;;;1.20;99.90;;;;;;5010461;28;20460;-66
2023/01/18 07:57:24;;;;;;;1999.90;999.90;;;1.20;99.90;;;;;;5010619;28;20458;-66
2023/01/18 07:59:51;;;;;;;1999.90;999.90;;;1.20;99.90;;;;;;5010947;28;20828;-66
2023/01/18 08:02:19;;;;;;;1999.90;999.90;;;1.10;99.90;;;;;;5010537;28;20485;-65
2023/01/18 08:04:48;;;;;;;1999.90;999.90;;;1.10;99.90;;;;;;5010397;28;20485;-66
2023/01/18 08:07:16;;;;;;;1999.90;999.90;;;1.10;99.90;;;;;;5010585;28;20453;-66
2023/01/18 08:09:43;;;;;;;1999.90;999.90;;;1.10;99.90;;;;;;5010617;28;20830;-66
2023/01/18 08:12:12;;;;;;;1999.90;999.90;;;1.10;99.90;;;;;;5010280;28;21226;-66
2023/01/18 08:14:39;;;;;;;1999.90;999.90;;;1.10;99.90;;;;;;5010311;28;20470;-66
2023/01/18 08:17:06;;;;;;;1999.90;999.90;;;1.10;99.90;;;;;;5009867;28;20465;-65
2023/01/18 08:19:35;;;;;;;1999.90;999.90;;;1.10;99.90;;;;;;5010159;28;20457;-66
2023/01/18 08:22:02;;;;;;;1999.90;999.90;;;1.00;99.90;;;;;;5010154;28;20453;-65
2023/01/18 08:24:29;;;;;;;1999.90;999.90;;;1.10;99.90;;;;;;5009731;28;20489;-64
2023/01/18 08:26:56;;;;;;;1999.90;999.90;;;1.00;99.90;;;;;;5010119;28;20457;-66
2023/01/18 08:29:22;;;;;;;1999.90;999.90;;;1.00;99.90;;;;;;5010340;28;20726;-64
2023/01/18 08:31:51;;;;;;;1999.90;999.90;;;1.10;99.90;;;;;;5010279;28;20445;-65
2023/01/18 08:34:19;;;;;;;1999.90;999.90;;;1.10;99.90;;;;;;5009936;28;20920;-66
2023/01/18 08:36:49;;;;;;;1999.90;999.90;;;1.10;99.90;;;;;;5010374;28;20453;-66
2023/01/18 08:39:16;;;;;;;1999.90;999.90;;;1.10;99.90;;;;;;5010771;28;20453;-66
2023/01/18 08:41:45;;;;;;;1999.90;999.90;;;1.30;99.90;;;;;;5010199;28;21034;-65
2023/01/18 08:44:12;;;;;;;1999.90;999.90;;;1.30;99.90;;;;;;5009570;28;20484;-67
2023/01/18 08:46:39;;;;;;;1999.90;999.90;;;1.30;99.90;;;;;;5009965;28;20457;-65
2023/01/18 08:49:06;;;;;;;1999.90;999.90;;;1.30;99.90;;;;;;5010004;28;21149;-66
2023/01/18 08:51:33;;;;;;;1999.90;999.90;;;1.30;99.90;;;;;;5009685;28;20492;-65
2023/01/18 08:54:01;;;;;;;1999.90;999.90;;;1.30;99.90;;;;;;5009139;28;20473;-65
2023/01/18 08:56:28;;;;;;;1999.90;999.90;;;1.30;99.90;;;;;;5009700;28;20453;-65
2023/01/18 08:58:56;;;;;;;1999.90;999.90;;;1.30;99.90;;;;;;5009629;28;20457;-67
2023/01/18 09:01:23;;;;;;;1999.90;999.90;;;1.40;99.90;;;;;;5009749;28;20453;-66
2023/01/18 09:03:50;;;;;;;1999.90;999.90;;;1.40;99.90;;;;;;5009479;28;20481;-65
2023/01/18 09:06:17;;;;;;;1999.90;999.90;;;1.40;99.90;;;;;;5009359;28;20453;-66
2023/01/18 09:08:46;;;;;;;1999.90;999.90;;;1.30;99.90;;;;;;5009438;28;20987;-63
2023/01/18 09:11:15;;;;;;;1999.90;999.90;;;1.30;99.90;;;;;;5009584;28;20468;-65
2023/01/18 09:13:42;;;;;;;1999.90;999.90;;;1.30;99.90;;;;;;5009136;28;20469;-63
2023/01/18 09:16:10;;;;;;;1999.90;999.90;;;1.30;99.90;;;;;;5009500;28;20449;-66
2023/01/18 09:18:38;;;;;;;1999.90;999.90;;;1.30;99.90;;;;;;5009504;28;20919;-66
2023/01/18 09:21:08;;;;;;;1999.90;999.90;;;1.40;99.90;;;;;;5009658;28;20462;-66
2023/01/18 09:23:36;;;;;;;1999.90;999.90;;;1.40;99.90;;;;;;5009025;28;20481;-66
2023/01/18 09:26:04;;;;;;;1999.90;999.90;;;1.40;99.90;;;;;;5009488;28;21021;-66
2023/01/18 09:28:33;;;;;;;1999.90;999.90;;;1.40;99.90;;;;;;5010360;28;20452;-67
2023/01/18 09:31:01;;;;;;;1999.90;999.90;;;1.40;99.90;;;;;;5010370;28;20492;-66
2023/01/18 09:33:28;;;;;;;1999.90;999.90;;;1.40;99.90;;;;;;5009639;28;20979;-65
2023/01/18 09:35:56;;;;;;;1999.90;999.90;;;1.40;99.90;;;;;;5009606;28;20466;-66
2023/01/18 09:38:22;;;;;;;1999.90;999.90;;;1.40;99.90;;;;;;5009393;28;20450;-66
2023/01/18 09:40:52;;;;;;;1999.90;999.90;;;1.50;99.90;;;;;;5009328;28;20453;-65
2023/01/18 09:43:27;;;;;;;1999.90;999.90;;;1.40;99.90;;;;;;5008921;28;20827;-66
2023/01/18 09:45:55;;;;;;;1999.90;999.90;;;1.40;99.90;;;;;;5009231;28;20481;-66
2023/01/18 09:48:30;;;;;;;1999.90;999.90;;;1.40;99.90;;;;;;5009287;28;20442;-64
2023/01/18 09:51:02;;;;;;;1999.90;999.90;;;1.40;99.90;;;;;;5008996;28;20484;-66
2023/01/18 09:53:50;;;;;;;1999.90;999.90;;;1.40;99.90;;;;;;5008248;28;20482;-65
2023/01/18 09:56:21;;;;;;;1999.90;999.90;;;1.40;99.90;;;;;;5009366;28;20453;-67
2023/01/18 09:59:02;;;;;;;1999.90;999.90;;;1.50;99.90;;;;;;5009335;28;20452;-66
2023/01/18 10:01:33;;;;;;;1999.90;999.90;;;1.50;99.90;;;;;;5009167;28;20820;-64
2023/01/18 10:04:05;;;;;;;1999.90;999.90;;;1.50;99.90;;;;;;5008581;28;20515;-66
2023/01/18 10:06:36;;;;;;;1999.90;999.90;;;1.50;99.90;;;;;;5009171;28;20460;-66
2023/01/18 10:09:07;;;;;;;1999.90;999.90;;;1.50;99.90;;;;;;5009096;28;20457;-66
2023/01/18 10:11:43;;;;;;;1999.90;999.90;;;1.50;99.90;;;;;;5009052;28;20458;-66
2023/01/18 10:14:18;;;;;;;1999.90;999.90;;;1.50;99.90;;;;;;5008663;28;20469;-66
2023/01/18 10:16:52;;;;;;;1999.90;999.90;;;1.60;99.90;;;;;;5008752;28;20456;-65
2023/01/18 10:19:24;;;;;;;1999.90;999.90;;;1.60;99.90;;;;;;5008999;28;20445;-66
2023/01/18 10:21:57;;;;;;;1999.90;999.90;;;1.60;99.90;;;;;;5008820;28;20441;-65
2023/01/18 10:24:46;;;;;;;1999.90;999.90;;;1.70;99.90;;;;;;5008635;28;20477;-65
2023/01/18 10:27:30;;;;;;;1999.90;999.90;;;1.70;99.90;;;;;;5008753;28;20446;-65
2023/01/18 10:30:27;;;;;;;1999.90;999.90;;;1.60;99.90;;;;;;5009153;28;20437;-66
2023/01/18 10:32:58;;;;;;;1999.90;999.90;;;1.60;99.90;;;;;;5008747;28;20493;-65
2023/01/18 10:35:29;;;;;;;1999.90;999.90;;;1.60;99.90;;;;;;5008986;28;20544;-66
2023/01/18 10:38:00;;;;;;;1999.90;999.90;;;1.70;99.90;;;;;;5008967;28;20955;-65
2023/01/18 10:40:27;;;;;;;1999.90;999.90;;;1.70;99.90;;;;;;5009079;28;20453;-65
2023/01/18 10:42:58;;;;;;;1999.90;999.90;;;1.60;99.90;;;;;;5012114;28;20481;-65
2023/01/18 10:45:27;;;;;;;1999.90;999.90;;;1.60;99.90;;;;;;5012436;28;20496;-65
2023/01/18 10:47:59;;;;;;;1999.90;999.90;;;1.70;99.90;;;;;;5012051;28;20449;-65
2023/01/18 10:50:36;;;;;;;1999.90;999.90;;;1.70;99.90;;;;;;5012089;28;21013;-65
2023/01/18 10:53:20;;;;;;;1999.90;999.90;;;1.70;99.90;;;;;;5011620;28;21139;-65
2023/01/18 10:55:52;;;;;;;1999.90;999.90;;;1.80;99.90;;;;;;5011952;28;20839;-65
2023/01/18 10:58:26;;;;;;;1999.90;999.90;;;1.80;99.90;;;;;;5012133;28;20446;-65
2023/01/18 11:00:54;;;;;;;1999.90;999.90;;;1.80;99.90;;;;;;5012098;28;21071;-66
2023/01/18 11:03:25;;;;;;;1999.90;999.90;;;1.90;99.90;;;;;;5011379;28;20466;-65
2023/01/18 11:05:52;;;;;;;1999.90;999.90;;;2.00;99.90;;;;;;5012089;28;20485;-65
2023/01/18 11:08:24;;;;;;;1999.90;999.90;;;2.00;99.90;;;;;;5011694;28;20446;-64
2023/01/18 11:11:01;;;;;;;1999.90;999.90;;;2.00;99.90;;;;;;5011551;28;20465;-65
2023/01/18 11:13:33;;;;;;;1999.90;999.90;;;2.00;99.90;;;;;;5011450;28;20568;-65
2023/01/18 11:16:11;;;;;;;1999.90;999.90;;;1.90;99.90;;;;;;5011555;28;20442;-64
2023/01/18 11:19:01;;;;;;;1999.90;999.90;;;1.90;99.90;;;;;;5011598;28;20454;-64
2023/01/18 11:21:43;;;;;;;1999.90;999.90;;;2.00;99.90;;;;;;5011382;28;20456;-65
2023/01/18 11:24:14;;;;;;;1999.90;999.90;;;2.00;99.90;;;;;;5011067;28;21017;-64
2023/01/18 11:26:52;;;;;;;1999.90;999.90;;;2.00;99.90;;;;;;5011377;28;20472;-66
2023/01/18 11:29:21;;;;;;;1999.90;999.90;;;2.10;99.90;;;;;;5011203;28;20449;-64
2023/01/18 11:31:51;;;;;;;1999.90;999.90;;;2.10;99.90;;;;;;5011067;28;20450;-63
2023/01/18 11:34:27;;;;;;;1999.90;999.90;;;2.10;99.90;;;;;;5010906;28;20474;-64
2023/01/18 11:36:59;;;;;;;1999.90;999.90;;;2.20;99.90;;;;;;5011039;28;20858;-64
2023/01/18 11:39:29;;;;;;;1999.90;999.90;;;2.30;99.90;;;;;;5010981;28;20943;-65
2023/01/18 11:42:20;;;;;;;1999.90;999.90;;;2.30;99.90;;;;;;5011133;28;20454;-64
2023/01/18 11:45:04;;;;;;;1999.90;999.90;;;2.30;99.90;;;;;;5011092;28;20559;-66
2023/01/18 11:47:39;;;;;;;1999.90;999.90;;;2.30;99.90;;;;;;5011442;28;20516;-66
2023/01/18 11:50:33;;;;;;;;;;;;;;;;;;;;;
2023/01/18 11:53:16;;;;;;;1999.90;999.90;;;2.30;99.90;;;;;;5007511;28;20469;-65
2023/01/18 11:55:54;;;;;;;1999.90;999.90;;;2.30;99.90;;;;;;5010729;28;20469;-66
2023/01/18 11:58:27;;;;;;;1999.90;999.90;;;2.30;99.90;;;;;;5010710;28;20504;-66
2023/01/18 12:01:11;;;;;;;1999.90;999.90;;;2.30;99.90;;;;;;5009195;28;20544;-64
2023/01/18 12:04:01;;;;;;;1999.90;999.90;;;2.30;99.90;;;;;;5010363;28;20469;-65
2023/01/18 12:06:44;;;;;;;1999.90;999.90;;;2.30;99.90;;;;;;5010584;28;20493;-66
2023/01/18 12:09:21;;;;;;;1999.90;999.90;;;2.20;99.90;;;;;;5010706;28;20441;-63
2023/01/18 12:12:06;;;;;;;1999.90;999.90;;;2.20;99.90;;;;;;5010635;28;20454;-66
2023/01/18 12:14:47;;;;;;;1999.90;999.90;;;2.20;99.90;;;;;;5010281;28;20474;-65
2023/01/18 12:17:43;;;;;;;1999.90;999.90;;;2.20;99.90;;;;;;5010349;28;20479;-65
2023/01/18 12:20:24;;;;;;;1999.90;999.90;;;2.20;99.90;;;;;;5010561;28;20468;-66
2023/01/18 12:23:26;;;;;;;1999.90;999.90;;;2.10;99.90;;;;;;5010190;28;21048;-65
2023/01/18 12:26:10;;;;;;;1999.90;999.90;;;2.10;99.90;;;;;;4993515;28;20853;-65
2023/01/18 12:28:54;;;;;;;1999.90;999.90;;;2.20;99.90;;;;;;5009674;28;20457;-65
2023/01/18 12:31:29;;;;;;;1999.90;999.90;;;2.20;99.90;;;;;;5009936;28;20448;-63
2023/01/18 12:34:05;;;;;;;1999.90;999.90;;;2.20;99.90;;;;;;5009678;28;20472;-65
2023/01/18 12:36:55;;;;;;;1999.90;999.90;;;2.20;99.90;;;;;;5008881;28;20529;-65
2023/01/18 12:39:41;;;;;;;1999.90;999.90;;;2.30;99.90;;;;;;5005993;28;20452;-63
2023/01/18 12:42:13;;;;;;;1999.90;999.90;;;2.20;99.90;;;;;;5007828;28;21029;-66
2023/01/18 12:44:53;;;;;;;1999.90;999.90;;;2.20;99.90;;;;;;5009440;28;20825;-64
2023/01/18 12:47:33;;;;;;;1999.90;999.90;;;2.30;99.90;;;;;;5008211;28;20445;-66
2023/01/18 12:50:05;;;;;;;1999.90;999.90;;;2.50;99.90;;;;;;5009572;28;20446;-66
2023/01/18 12:52:37;;;;;;;1999.90;999.90;;;2.60;99.90;;;;;;5009014;28;20441;-65
2023/01/18 12:55:08;;;;;;;1999.90;999.90;;;2.60;99.90;;;;;;5009637;28;20454;-65
2023/01/18 12:57:35;;;;;;;1999.90;999.90;;;2.60;99.90;;;;;;5009430;28;20457;-66